createdAt,value
2019-06-26T00:00:51.414Z,30.40
2019-06-26T00:05:00.010Z,31.03
2019-06-26T00:09:09.063Z,32.57
2019-06-26T00:13:26.234Z,40.10
2019-06-26T00:17:27.866Z,32.80
2019-06-26T00:21:36.383Z,45.33
2019-06-26T00:25:44.863Z,44.17
2019-06-26T00:29:53.377Z,43.27
2019-06-26T00:34:01.987Z,41.80
2019-06-26T00:38:10.547Z,43.60
2019-06-26T00:42:19.134Z,46.03
2019-06-26T00:46:27.597Z,44.53
2019-06-26T00:50:36.196Z,43.57
2019-06-26T00:54:44.680Z,40.27
2019-06-26T00:58:53.208Z,43.80
2019-06-26T01:03:01.800Z,46.40
2019-06-26T01:07:10.341Z,48.73
2019-06-26T01:11:21.610Z,43.90
2019-06-26T01:15:29.355Z,34.93
2019-06-26T01:19:37.931Z,42.47
2019-06-26T01:23:46.446Z,46.00
2019-06-26T01:27:54.969Z,51.90
2019-06-26T01:32:03.562Z,59.40
2019-06-26T01:36:12.140Z,54.10
2019-06-26T01:40:21.173Z,53.10
2019-06-26T01:44:29.714Z,58.90
2019-06-26T01:48:38.563Z,48.63
2019-06-26T01:52:47.073Z,45.50
2019-06-26T01:56:55.728Z,56.53
2019-06-26T02:01:04.243Z,61.77
2019-06-26T02:05:13.064Z,57.97
2019-06-26T02:09:21.579Z,60.63
2019-06-26T02:13:30.128Z,61.50
2019-06-26T02:17:38.651Z,63.93
2019-06-26T02:21:47.154Z,70.20
2019-06-26T02:25:55.674Z,63.37
2019-06-26T02:30:07.942Z,58.13
2019-06-26T02:34:16.519Z,58.57
2019-06-26T02:38:25.044Z,63.63
2019-06-26T02:42:33.632Z,56.03
2019-06-26T02:46:42.221Z,57.27
2019-06-26T02:50:50.799Z,56.33
2019-06-26T02:54:59.338Z,57.77
2019-06-26T02:59:07.908Z,52.17
2019-06-26T03:03:16.447Z,56.10
2019-06-26T03:07:25.111Z,54.10
2019-06-26T03:11:33.661Z,55.93
2019-06-26T03:15:42.183Z,53.90
2019-06-26T03:19:50.715Z,57.40
2019-06-26T03:23:59.298Z,55.77
2019-06-26T03:28:07.786Z,57.70
2019-06-26T03:32:16.304Z,57.13
2019-06-26T03:36:24.774Z,57.00
2019-06-26T03:40:33.305Z,55.50
2019-06-26T03:44:41.957Z,57.70
2019-06-26T03:48:50.529Z,59.57
2019-06-26T03:52:59.084Z,55.10
2019-06-26T03:57:07.646Z,56.57
2019-06-26T04:01:16.209Z,56.53
2019-06-26T04:05:24.775Z,57.47
2019-06-26T04:09:33.328Z,61.40
2019-06-26T04:13:41.868Z,57.73
2019-06-26T04:17:50.388Z,57.27
2019-06-26T04:21:58.887Z,59.80
2019-06-26T04:26:07.391Z,57.60
2019-06-26T04:30:16.336Z,62.40
2019-06-26T04:34:24.903Z,60.00
2019-06-26T04:38:33.382Z,62.00
2019-06-26T04:42:41.955Z,65.30
2019-06-26T04:46:50.406Z,66.87
2019-06-26T04:50:58.922Z,71.93
2019-06-26T04:55:07.888Z,68.27
2019-06-26T04:59:16.373Z,72.37
2019-06-26T05:03:24.955Z,75.93
2019-06-26T05:07:33.556Z,72.87
2019-06-26T05:11:42.129Z,78.57
2019-06-26T05:15:50.609Z,86.77
2019-06-26T05:19:59.134Z,83.90
2019-06-26T05:24:07.674Z,79.20
2019-06-26T05:28:16.328Z,81.20
2019-06-26T05:32:24.868Z,84.60
2019-06-26T05:36:33.344Z,79.80
2019-06-26T05:40:41.855Z,86.97
2019-06-26T05:44:50.410Z,83.13
2019-06-26T05:48:59.251Z,89.03
2019-06-26T05:53:07.855Z,93.67
2019-06-26T05:57:16.416Z,87.30
2019-06-26T06:01:24.897Z,93.70
2019-06-26T06:05:33.352Z,95.80
2019-06-26T06:09:41.841Z,95.37
2019-06-26T06:13:50.541Z,89.77
2019-06-26T06:17:59.047Z,92.53
2019-06-26T06:22:07.556Z,99.27
2019-06-26T06:26:16.034Z,100.97
2019-06-26T06:30:24.584Z,98.43
2019-06-26T06:34:33.173Z,93.37
2019-06-26T06:38:41.759Z,97.60
2019-06-26T06:42:50.533Z,102.50
2019-06-26T06:47:03.736Z,111.27
2019-06-26T06:51:09.252Z,94.67
2019-06-26T06:55:18.011Z,92.80
2019-06-26T06:59:26.492Z,93.07
2019-06-26T07:03:34.987Z,88.97
2019-06-26T07:07:43.454Z,83.93
2019-06-26T07:11:51.975Z,92.93
2019-06-26T07:16:00.541Z,89.47
2019-06-26T07:20:09.570Z,91.80
2019-06-26T07:24:18.107Z,82.83
2019-06-26T07:28:26.679Z,82.70
2019-06-26T07:32:35.265Z,85.50
2019-06-26T07:36:44.021Z,81.60
2019-06-26T07:40:52.663Z,93.07
2019-06-26T07:45:01.164Z,99.63
2019-06-26T07:49:09.695Z,100.70
2019-06-26T07:53:18.249Z,102.27
2019-06-26T07:57:26.733Z,86.70
2019-06-26T08:01:35.322Z,88.57
2019-06-26T08:05:43.930Z,95.13
2019-06-26T08:09:52.552Z,93.60
2019-06-26T08:14:01.176Z,95.23
2019-06-26T08:18:09.766Z,81.53
2019-06-26T08:22:18.318Z,87.83
2019-06-26T08:26:26.959Z,76.60
2019-06-26T08:30:35.480Z,97.30
2019-06-26T08:34:44.024Z,92.07
2019-06-26T08:38:52.537Z,83.10
2019-06-26T08:43:01.132Z,85.07
2019-06-26T08:47:09.693Z,88.10
2019-06-26T08:51:18.154Z,79.33
2019-06-26T08:55:26.816Z,83.23
2019-06-26T08:59:35.328Z,91.00
2019-06-26T09:03:43.835Z,96.67
2019-06-26T09:07:52.377Z,77.27
2019-06-26T09:12:00.923Z,88.70
2019-06-26T09:16:09.752Z,79.90
2019-06-26T09:20:27.355Z,82.10
2019-06-26T09:24:35.964Z,80.00
2019-06-26T09:28:44.548Z,84.07
2019-06-26T09:32:53.218Z,89.20
2019-06-26T09:37:01.747Z,86.53
2019-06-26T09:41:10.351Z,81.70
2019-06-26T09:45:19.962Z,81.60
2019-06-26T09:49:28.844Z,76.00
2019-06-26T09:53:47.182Z,69.53
2019-06-26T09:57:47.570Z,80.37
2019-06-26T10:01:57.250Z,82.20
2019-06-26T10:06:05.796Z,70.73
2019-06-26T10:10:14.662Z,75.40
2019-06-26T10:14:23.261Z,67.67
2019-06-26T10:18:31.821Z,68.63
2019-06-26T10:22:40.339Z,62.40
2019-06-26T10:26:48.894Z,63.57
2019-06-26T10:30:57.497Z,71.93
2019-06-26T10:35:06.524Z,70.13
2019-06-26T10:43:45.384Z,61.57
2019-06-26T10:47:53.912Z,62.27
2019-06-26T10:52:02.441Z,56.53
2019-06-26T10:56:11.277Z,54.67
2019-06-26T11:00:20.434Z,64.27
2019-06-26T11:04:28.994Z,51.43
2019-06-26T11:08:37.901Z,59.27
2019-06-26T11:12:48.979Z,54.47
2019-06-26T11:16:56.637Z,59.43
2019-06-26T11:21:05.202Z,48.13
2019-06-26T11:25:13.861Z,51.23
2019-06-26T11:29:22.444Z,57.00
2019-06-26T11:33:31.000Z,56.47
2019-06-26T11:37:39.991Z,56.70
2019-06-26T11:41:48.465Z,52.03
2019-06-26T11:45:56.973Z,50.00
2019-06-26T11:50:08.090Z,51.33
2019-06-26T11:54:16.681Z,48.57
2019-06-26T11:58:25.169Z,43.83
2019-06-26T12:02:33.778Z,46.93
2019-06-26T12:06:45.684Z,45.13
2019-06-26T12:10:52.596Z,42.57
2019-06-26T12:15:01.097Z,39.73
2019-06-26T12:19:09.590Z,42.13
2019-06-26T12:23:18.176Z,48.10
2019-06-26T12:27:26.728Z,41.67
2019-06-26T12:31:35.241Z,37.60
2019-06-26T12:35:43.726Z,33.43
2019-06-26T12:39:52.346Z,34.30
2019-06-26T12:44:00.894Z,31.20
2019-06-26T12:48:09.392Z,31.60
2019-06-26T12:52:17.983Z,36.20
2019-06-26T12:56:26.592Z,31.20
2019-06-26T13:00:35.093Z,34.63
2019-06-26T13:04:44.801Z,27.00
2019-06-26T13:08:53.734Z,30.27
2019-06-26T13:13:02.365Z,29.37
2019-06-26T13:17:10.951Z,27.83
2019-06-26T13:21:19.486Z,24.73
2019-06-26T13:25:28.058Z,25.33
2019-06-26T13:29:36.718Z,22.20
2019-06-26T13:33:45.327Z,22.03
2019-06-26T13:37:53.886Z,19.00
2019-06-26T13:42:02.400Z,20.23
2019-06-26T13:46:10.963Z,22.43
2019-06-26T13:50:21.111Z,19.77
2019-06-26T13:54:29.597Z,18.43
2019-06-26T13:58:38.111Z,15.90
2019-06-26T14:02:46.841Z,17.50
2019-06-26T14:06:55.364Z,19.60
2019-06-26T14:11:07.265Z,14.23
2019-06-26T14:15:14.668Z,15.80
2019-06-26T14:19:26.633Z,16.87
2019-06-26T14:23:33.401Z,13.70
2019-06-26T14:27:41.875Z,14.67
2019-06-26T14:31:50.360Z,14.00
2019-06-26T14:35:58.864Z,15.90
2019-06-26T14:40:08.940Z,14.33
2019-06-26T14:44:17.453Z,13.47
2019-06-26T14:48:25.988Z,13.50
2019-06-26T14:52:35.228Z,13.70
2019-06-26T14:56:43.808Z,11.93
2019-06-26T15:00:52.311Z,13.40
2019-06-26T15:05:00.968Z,13.93
2019-06-26T15:09:09.445Z,13.30
2019-06-26T15:13:17.948Z,13.83
2019-06-26T15:17:26.536Z,15.37
2019-06-26T15:21:35.057Z,14.67
2019-06-26T15:25:43.662Z,14.67
2019-06-26T15:29:53.123Z,13.43
2019-06-26T15:34:01.676Z,12.97
2019-06-26T15:38:10.271Z,15.43
2019-06-26T15:42:18.785Z,13.13
2019-06-26T15:46:27.249Z,14.47
2019-06-26T15:50:35.827Z,15.30
2019-06-26T15:54:44.360Z,14.00
2019-06-26T15:58:52.819Z,13.30
2019-06-26T16:03:01.323Z,14.23
2019-06-26T16:07:09.803Z,13.97
2019-06-26T16:11:18.316Z,13.83
2019-06-26T16:15:26.779Z,12.50
2019-06-26T16:19:35.258Z,15.17
2019-06-26T16:23:43.724Z,11.93
2019-06-26T16:28:04.759Z,15.83
2019-06-26T16:32:02.422Z,12.82
2019-06-26T16:36:10.899Z,12.63
2019-06-26T16:40:19.474Z,14.33
2019-06-26T16:44:27.968Z,15.33
2019-06-26T16:48:36.428Z,12.13
2019-06-26T16:52:49.610Z,12.67
2019-06-26T16:56:55.148Z,10.77
2019-06-26T17:01:03.649Z,12.13
2019-06-26T17:05:12.437Z,12.03
2019-06-26T17:09:20.938Z,12.30
2019-06-26T17:13:29.430Z,13.30
2019-06-26T17:17:37.996Z,16.50
2019-06-26T17:21:46.468Z,11.70
2019-06-26T17:25:54.988Z,12.20
2019-06-26T17:30:05.646Z,13.60
2019-06-26T17:34:14.144Z,12.13
2019-06-26T17:38:22.951Z,11.10
2019-06-26T17:42:31.440Z,11.57
2019-06-26T17:46:39.924Z,11.10
2019-06-26T17:50:48.431Z,12.50
2019-06-26T17:54:57.062Z,10.90
2019-06-26T17:59:05.513Z,12.10
2019-06-26T18:03:14.068Z,10.40
2019-06-26T18:07:22.611Z,10.00
2019-06-26T18:11:31.104Z,15.10
2019-06-26T18:15:39.625Z,9.83
2019-06-26T18:19:48.181Z,8.17
2019-06-26T18:23:56.679Z,10.63
2019-06-26T18:28:05.246Z,9.93
2019-06-26T18:32:13.871Z,13.43
2019-06-26T18:36:22.367Z,8.27
2019-06-26T18:40:30.935Z,7.73
2019-06-26T18:44:39.472Z,15.83
2019-06-26T18:48:47.961Z,9.53
2019-06-26T18:52:56.424Z,7.30
2019-06-26T18:57:04.901Z,9.20
2019-06-26T19:01:13.376Z,7.65
2019-06-26T19:05:21.873Z,10.17
2019-06-26T19:09:30.380Z,10.13
2019-06-26T19:13:38.832Z,12.57
2019-06-26T19:17:47.323Z,7.47
2019-06-26T19:21:55.952Z,5.80
2019-06-26T19:26:04.432Z,7.87
2019-06-26T19:30:13.157Z,9.90
2019-06-26T19:34:21.682Z,5.70
2019-06-26T19:38:30.205Z,4.60
2019-06-26T19:42:38.685Z,9.43
2019-06-26T19:46:47.187Z,5.40
2019-06-26T19:50:55.733Z,5.10
2019-06-26T19:55:06.042Z,7.10
2019-06-26T19:59:14.544Z,10.50
2019-06-26T20:03:23.103Z,4.20
2019-06-26T20:07:31.608Z,7.23
2019-06-26T20:11:40.084Z,4.30
2019-06-26T20:15:48.576Z,10.27
2019-06-26T20:19:57.063Z,5.40
2019-06-26T20:24:05.550Z,6.30
2019-06-26T20:28:14.045Z,7.50
2019-06-26T20:32:22.511Z,8.27
2019-06-26T20:36:31.015Z,7.63
2019-06-26T20:40:39.465Z,7.03
2019-06-26T20:44:47.955Z,7.37
2019-06-26T20:48:56.514Z,7.50
2019-06-26T20:53:05.017Z,5.53
2019-06-26T20:57:13.479Z,6.80
2019-06-26T21:01:21.993Z,6.90
2019-06-26T21:05:30.489Z,7.70
2019-06-26T21:09:39.134Z,6.80
2019-06-26T21:13:47.624Z,8.63
2019-06-26T21:17:56.188Z,9.93
2019-06-26T21:22:04.682Z,6.00
2019-06-26T21:26:13.165Z,10.43
2019-06-26T21:30:22.762Z,6.30
2019-06-26T21:34:31.224Z,9.13
2019-06-26T21:38:39.712Z,10.17
2019-06-26T21:42:48.204Z,8.13
2019-06-26T21:46:56.712Z,6.23
2019-06-26T21:51:05.210Z,7.10
2019-06-26T21:55:13.814Z,8.00
2019-06-26T21:59:22.278Z,8.47
2019-06-26T22:03:31.134Z,8.43
2019-06-26T22:07:39.696Z,8.10
2019-06-26T22:11:48.169Z,15.27
2019-06-26T22:15:56.643Z,8.03
2019-06-26T22:20:12.300Z,5.63
2019-06-26T22:24:38.346Z,8.57
2019-06-26T22:28:46.848Z,6.03
2019-06-26T22:32:55.367Z,8.63
2019-06-26T22:37:03.961Z,7.77
2019-06-26T22:41:12.449Z,6.40
2019-06-26T22:45:20.945Z,12.40
2019-06-26T22:49:29.441Z,6.70
2019-06-26T22:53:37.923Z,7.13
2019-06-26T22:57:46.427Z,6.13
2019-06-26T23:01:54.911Z,10.70
2019-06-26T23:06:03.415Z,11.10
2019-06-26T23:10:12.521Z,10.63
2019-06-26T23:14:20.984Z,8.00
2019-06-26T23:18:29.463Z,9.90
2019-06-26T23:22:37.950Z,9.20
2019-06-26T23:26:46.440Z,11.57
2019-06-26T23:30:54.934Z,9.80
2019-06-26T23:35:03.485Z,10.07
2019-06-26T23:39:11.969Z,7.33
2019-06-26T23:43:20.456Z,7.23
2019-06-26T23:47:28.946Z,13.50
2019-06-26T23:51:37.447Z,10.47
2019-06-26T23:55:46.004Z,11.40
2019-06-26T23:59:54.552Z,7.00
